createdAt,value
2022-09-22T00:01:50.380Z,0.75
2022-09-22T00:04:16.813Z,1.20
2022-09-22T00:06:45.322Z,1.40
2022-09-22T00:09:12.568Z,0.98
2022-09-22T00:11:40.336Z,1.10
2022-09-22T00:14:08.423Z,1.30
2022-09-22T00:16:37.898Z,1.33
2022-09-22T00:19:11.726Z,1.17
2022-09-22T00:21:38.082Z,1.17
2022-09-22T00:24:05.515Z,1.48
2022-09-22T00:26:32.067Z,1.00
2022-09-22T00:28:58.431Z,1.20
2022-09-22T00:31:25.647Z,1.17
2022-09-22T00:33:52.833Z,1.13
2022-09-22T00:36:20.187Z,0.88
2022-09-22T00:38:46.710Z,1.23
2022-09-22T00:41:18.842Z,1.23
2022-09-22T00:43:47.531Z,1.00
2022-09-22T00:46:14.778Z,1.00
2022-09-22T00:48:44.679Z,0.90
2022-09-22T00:51:12.873Z,1.10
2022-09-22T00:53:39.500Z,1.33
2022-09-22T00:56:09.224Z,1.20
2022-09-22T00:58:37.635Z,0.80
2022-09-22T01:01:04.438Z,0.93
2022-09-22T01:03:33.490Z,0.90
2022-09-22T01:06:01.630Z,0.90
2022-09-22T01:08:29.654Z,0.52
2022-09-22T01:10:57.341Z,0.85
2022-09-22T01:13:42.536Z,0.85
2022-09-22T01:16:08.936Z,1.27
2022-09-22T01:18:50.368Z,0.93
2022-09-22T01:21:33.650Z,1.20
2022-09-22T01:24:18.763Z,1.05
2022-09-22T01:27:03.776Z,1.02
2022-09-22T01:29:30.131Z,1.08
2022-09-22T01:31:59.537Z,0.90
2022-09-22T01:34:29.408Z,1.08
2022-09-22T01:37:14.677Z,0.85
2022-09-22T01:40:07.555Z,0.90
2022-09-22T01:42:38.644Z,0.85
2022-09-22T01:45:14.058Z,0.80
2022-09-22T01:47:44.682Z,0.95
2022-09-22T01:50:16.456Z,0.95
2022-09-22T01:52:44.023Z,1.00
2022-09-22T01:55:10.341Z,0.90
2022-09-22T01:57:57.915Z,0.90
2022-09-22T02:00:24.565Z,1.10
2022-09-22T02:02:51.040Z,1.08
2022-09-22T02:05:46.626Z,0.80
2022-09-22T02:08:36.055Z,1.38
2022-09-22T02:11:07.752Z,1.10
2022-09-22T02:13:34.108Z,0.90
2022-09-22T02:16:00.578Z,0.90
2022-09-22T02:18:56.496Z,1.33
2022-09-22T02:21:25.100Z,1.13
2022-09-22T02:23:51.386Z,1.17
2022-09-22T02:26:23.645Z,1.17
2022-09-22T02:28:51.927Z,1.10
2022-09-22T02:31:20.435Z,1.25
2022-09-22T02:33:47.848Z,1.00
2022-09-22T02:36:17.070Z,1.33
2022-09-22T02:38:49.641Z,1.25
2022-09-22T02:41:21.046Z,0.98
2022-09-22T02:43:53.874Z,1.13
2022-09-22T02:46:24.007Z,1.10
2022-09-22T02:48:51.524Z,0.90
2022-09-22T02:51:18.483Z,1.00
2022-09-22T02:53:45.155Z,1.23
2022-09-22T02:56:11.774Z,1.05
2022-09-22T02:58:38.150Z,1.00
2022-09-22T03:01:04.596Z,1.30
2022-09-22T03:03:30.928Z,1.52
2022-09-22T03:05:57.322Z,1.35
2022-09-22T03:08:23.655Z,1.60
2022-09-22T03:10:49.997Z,1.30
2022-09-22T03:13:17.522Z,0.80
2022-09-22T03:15:44.598Z,1.10
2022-09-22T03:18:11.016Z,1.30
2022-09-22T03:20:37.377Z,0.90
2022-09-22T03:23:03.688Z,1.08
2022-09-22T03:25:30.029Z,0.88
2022-09-22T03:27:56.384Z,0.70
2022-09-22T03:30:22.720Z,1.00
2022-09-22T03:32:49.059Z,1.20
2022-09-22T03:35:15.725Z,1.00
2022-09-22T03:37:42.090Z,1.00
2022-09-22T03:40:08.643Z,1.55
2022-09-22T03:42:35.257Z,1.00
2022-09-22T03:45:03.117Z,1.10
2022-09-22T03:47:29.479Z,1.50
2022-09-22T03:49:55.890Z,1.88
2022-09-22T03:52:22.739Z,1.33
2022-09-22T03:54:49.567Z,1.55
2022-09-22T03:57:16.014Z,1.20
2022-09-22T03:59:42.342Z,1.42
2022-09-22T04:02:09.130Z,1.13
2022-09-22T04:04:35.515Z,1.27
2022-09-22T04:07:07.081Z,1.52
2022-09-22T04:09:33.928Z,1.90
2022-09-22T04:12:00.915Z,1.13
2022-09-22T04:14:27.429Z,1.30
2022-09-22T04:16:54.338Z,1.10
2022-09-22T04:19:20.833Z,1.17
2022-09-22T04:21:47.190Z,1.70
2022-09-22T04:24:13.472Z,1.75
2022-09-22T04:26:51.642Z,1.27
2022-09-22T04:29:26.129Z,1.30
2022-09-22T04:31:52.555Z,1.17
2022-09-22T04:34:18.959Z,1.40
2022-09-22T04:36:45.326Z,1.42
2022-09-22T04:39:11.713Z,1.77
2022-09-22T04:41:38.646Z,1.17
2022-09-22T04:44:05.031Z,1.40
2022-09-22T04:46:31.409Z,1.17
2022-09-22T04:48:57.854Z,1.85
2022-09-22T04:51:24.222Z,1.50
2022-09-22T04:53:50.548Z,1.60
2022-09-22T04:56:17.424Z,1.10
2022-09-22T04:58:44.042Z,1.10
2022-09-22T05:01:10.487Z,1.38
2022-09-22T05:03:38.939Z,1.73
2022-09-22T05:06:06.089Z,1.77
2022-09-22T05:08:32.521Z,1.52
2022-09-22T05:10:59.773Z,1.63
2022-09-22T05:13:26.131Z,1.70
2022-09-22T05:15:52.733Z,1.73
2022-09-22T05:18:19.036Z,1.77
2022-09-22T05:20:45.856Z,1.73
2022-09-22T05:23:15.349Z,1.60
2022-09-22T05:25:42.557Z,2.13
2022-09-22T05:28:08.914Z,1.45
2022-09-22T05:30:35.343Z,1.75
2022-09-22T05:33:01.656Z,1.60
2022-09-22T05:35:29.271Z,2.00
2022-09-22T05:37:57.175Z,1.55
2022-09-22T05:40:26.051Z,1.52
2022-09-22T05:42:53.512Z,1.85
2022-09-22T05:45:20.420Z,1.55
2022-09-22T05:47:46.818Z,1.67
2022-09-22T05:50:14.090Z,1.63
2022-09-22T05:52:40.617Z,1.80
2022-09-22T05:55:08.065Z,1.90
2022-09-22T05:57:34.715Z,1.50
2022-09-22T06:00:01.186Z,2.10
2022-09-22T06:02:27.646Z,1.95
2022-09-22T06:04:54.352Z,1.45
2022-09-22T06:07:21.502Z,2.15
2022-09-22T06:09:48.121Z,2.00
2022-09-22T06:12:14.633Z,2.15
2022-09-22T06:14:41.275Z,2.58
2022-09-22T06:17:11.873Z,2.05
2022-09-22T06:19:39.012Z,2.05
2022-09-22T06:22:05.494Z,1.90
2022-09-22T06:24:31.995Z,2.03
2022-09-22T06:26:58.355Z,2.03
2022-09-22T06:29:24.715Z,2.13
2022-09-22T06:31:51.408Z,2.13
2022-09-22T06:34:18.797Z,2.10
2022-09-22T06:36:45.374Z,2.45
2022-09-22T06:39:13.020Z,1.85
2022-09-22T06:41:39.441Z,2.60
2022-09-22T06:44:06.882Z,1.75
2022-09-22T06:46:34.644Z,2.53
2022-09-22T06:49:01.303Z,1.90
2022-09-22T06:51:28.747Z,2.20
2022-09-22T06:53:55.631Z,2.08
2022-09-22T06:56:23.609Z,1.83
2022-09-22T06:59:08.940Z,2.00
2022-09-22T07:01:36.604Z,2.10
2022-09-22T07:04:03.655Z,2.30
2022-09-22T07:06:29.991Z,2.40
2022-09-22T07:08:56.436Z,2.40
2022-09-22T07:11:23.634Z,2.10
2022-09-22T07:13:51.329Z,2.80
2022-09-22T07:16:18.802Z,2.60
2022-09-22T07:18:45.981Z,2.33
2022-09-22T07:21:13.644Z,2.45
2022-09-22T07:23:40.853Z,2.53
2022-09-22T07:26:08.136Z,2.08
2022-09-22T07:28:35.828Z,4.30
2022-09-22T07:31:08.532Z,3.60
2022-09-22T07:33:41.411Z,5.68
2022-09-22T07:36:09.925Z,5.97
2022-09-22T07:38:36.907Z,3.80
2022-09-22T07:41:04.804Z,4.65
2022-09-22T07:43:31.317Z,5.88
2022-09-22T07:45:57.941Z,3.10
2022-09-22T07:48:37.684Z,6.85
2022-09-22T07:51:05.719Z,5.15
2022-09-22T07:53:32.441Z,4.47
2022-09-22T07:56:02.187Z,5.20
2022-09-22T07:58:28.628Z,5.03
2022-09-22T08:00:54.969Z,3.65
2022-09-22T08:03:21.411Z,4.93
2022-09-22T08:05:53.450Z,4.70
2022-09-22T08:08:20.605Z,3.45
2022-09-22T08:10:47.120Z,3.60
2022-09-22T08:13:13.810Z,4.45
2022-09-22T08:15:40.121Z,7.72
2022-09-22T08:18:07.352Z,2.90
2022-09-22T08:20:33.734Z,3.55
2022-09-22T08:23:05.027Z,6.75
2022-09-22T08:25:31.663Z,4.88
2022-09-22T08:28:00.230Z,8.32
2022-09-22T08:30:26.735Z,7.03
2022-09-22T08:32:53.994Z,3.80
2022-09-22T08:35:20.554Z,5.07
2022-09-22T08:37:49.269Z,6.38
2022-09-22T08:40:24.731Z,5.70
2022-09-22T08:42:54.346Z,4.05
2022-09-22T08:45:29.781Z,3.95
2022-09-22T08:48:18.307Z,3.22
2022-09-22T08:51:14.863Z,8.32
2022-09-22T08:56:29.264Z,3.17
2022-09-22T08:59:10.983Z,6.55
2022-09-22T09:02:01.220Z,3.72
2022-09-22T09:04:46.606Z,5.40
2022-09-22T09:07:19.350Z,4.70
2022-09-22T09:10:14.645Z,6.07
2022-09-22T09:12:43.830Z,2.75
2022-09-22T09:15:46.054Z,7.07
2022-09-22T09:18:15.286Z,5.78
2022-09-22T09:20:48.497Z,3.65
2022-09-22T09:26:24.332Z,3.33
2022-09-22T09:29:13.649Z,6.30
2022-09-22T09:31:41.939Z,5.03
2022-09-22T09:34:13.420Z,7.28
2022-09-22T09:36:42.318Z,5.82
2022-09-22T09:39:13.846Z,5.38
2022-09-22T09:41:41.760Z,3.97
2022-09-22T09:44:19.476Z,4.60
2022-09-22T09:46:52.153Z,3.15
2022-09-22T09:49:21.942Z,4.97
2022-09-22T09:51:51.106Z,2.17
2022-09-22T09:54:18.020Z,2.80
2022-09-22T09:57:02.864Z,3.90
2022-09-22T09:59:47.727Z,4.10
2022-09-22T10:02:27.330Z,3.42
2022-09-22T10:05:05.765Z,3.92
2022-09-22T10:07:44.002Z,4.10
2022-09-22T10:10:23.338Z,4.32
2022-09-22T10:12:49.705Z,2.08
2022-09-22T10:15:26.124Z,5.13
2022-09-22T10:17:52.568Z,2.30
2022-09-22T10:20:23.197Z,1.85
2022-09-22T10:22:50.091Z,3.55
2022-09-22T10:25:19.591Z,3.50
2022-09-22T10:27:58.844Z,2.85
2022-09-22T10:30:25.726Z,1.98
2022-09-22T10:33:10.694Z,3.28
2022-09-22T10:35:37.521Z,3.45
2022-09-22T10:38:15.193Z,4.25
2022-09-22T10:40:43.051Z,3.22
2022-09-22T10:43:18.108Z,2.00
2022-09-22T10:46:08.268Z,3.53
2022-09-22T10:48:42.997Z,3.10
2022-09-22T10:51:15.681Z,1.90
2022-09-22T10:53:48.703Z,2.88
2022-09-22T10:56:34.047Z,2.63
2022-09-22T10:59:19.095Z,2.47
2022-09-22T11:01:45.461Z,1.38
2022-09-22T11:04:30.401Z,2.08
2022-09-22T11:07:35.655Z,1.80
2022-09-22T11:10:35.954Z,2.28
2022-09-22T11:13:07.477Z,1.80
2022-09-22T11:15:58.137Z,2.15
2022-09-22T11:18:32.931Z,2.63
2022-09-22T11:21:11.722Z,2.92
2022-09-22T11:23:57.276Z,2.30
2022-09-22T11:26:43.060Z,2.28
2022-09-22T11:29:09.498Z,1.20
2022-09-22T11:31:42.336Z,1.33
2022-09-22T11:34:31.181Z,1.45
2022-09-22T11:37:28.459Z,0.90
2022-09-22T11:40:08.625Z,1.42
2022-09-22T11:42:40.842Z,1.50
2022-09-22T11:45:19.705Z,1.05
2022-09-22T11:47:51.118Z,1.30
2022-09-22T11:50:23.371Z,1.10
2022-09-22T11:52:58.798Z,1.73
2022-09-22T11:55:35.776Z,1.65
2022-09-22T11:58:07.143Z,1.58
2022-09-22T12:00:36.161Z,1.98
2022-09-22T12:03:15.860Z,1.65
2022-09-22T12:05:42.272Z,1.83
2022-09-22T12:08:12.981Z,1.48
2022-09-22T12:10:41.353Z,1.83
2022-09-22T12:13:11.826Z,1.55
2022-09-22T12:15:43.466Z,1.30
2022-09-22T12:18:13.116Z,1.60
2022-09-22T12:20:58.905Z,1.35
2022-09-22T12:23:35.870Z,1.85
2022-09-22T12:26:05.268Z,1.02
2022-09-22T12:28:32.406Z,1.05
2022-09-22T12:31:02.535Z,1.10
2022-09-22T12:33:29.304Z,0.93
2022-09-22T12:35:56.894Z,1.02
2022-09-22T12:38:23.792Z,1.27
2022-09-22T12:40:51.346Z,0.70
2022-09-22T12:43:20.320Z,1.00
2022-09-22T12:45:47.263Z,0.82
2022-09-22T12:48:25.015Z,0.80
2022-09-22T12:50:52.208Z,0.70
2022-09-22T12:53:24.781Z,0.80
2022-09-22T12:55:55.197Z,0.70
2022-09-22T12:58:22.167Z,1.17
2022-09-22T13:00:49.607Z,0.80
2022-09-22T13:03:25.446Z,1.00
2022-09-22T13:08:42.521Z,1.00
2022-09-22T13:11:09.352Z,0.75
2022-09-22T13:13:41.786Z,0.60
2022-09-22T13:16:15.377Z,1.20
2022-09-22T13:18:42.831Z,0.95
2022-09-22T13:21:12.187Z,1.05
2022-09-22T13:23:58.894Z,1.02
2022-09-22T13:26:26.937Z,0.88
2022-09-22T13:29:03.172Z,0.77
2022-09-22T13:31:35.652Z,1.20
2022-09-22T13:34:16.642Z,1.05
2022-09-22T13:36:43.930Z,1.50
2022-09-22T13:39:13.620Z,1.55
2022-09-22T13:41:41.160Z,0.82
2022-09-22T13:44:11.850Z,1.85
2022-09-22T13:46:39.935Z,1.90
2022-09-22T13:49:08.797Z,1.65
2022-09-22T13:51:38.090Z,1.38
2022-09-22T13:54:05.117Z,2.10
2022-09-22T13:56:31.803Z,1.60
2022-09-22T13:59:00.029Z,1.73
2022-09-22T14:01:27.701Z,1.67
2022-09-22T14:03:55.266Z,1.52
2022-09-22T14:06:22.992Z,1.15
2022-09-22T14:08:50.033Z,1.10
2022-09-22T14:11:18.867Z,0.88
2022-09-22T14:13:54.641Z,1.10
2022-09-22T14:18:49.050Z,0.80
2022-09-22T14:21:15.456Z,0.80
2022-09-22T14:23:43.286Z,0.68
2022-09-22T14:26:20.101Z,0.60
2022-09-22T14:28:46.631Z,0.85
2022-09-22T14:31:14.343Z,0.63
2022-09-22T14:33:41.750Z,0.70
2022-09-22T14:36:12.835Z,0.70
2022-09-22T14:38:44.379Z,0.70
2022-09-22T14:41:35.781Z,0.40
2022-09-22T14:44:21.712Z,0.80
2022-09-22T14:46:48.201Z,0.65
2022-09-22T14:49:33.060Z,0.60
2022-09-22T14:52:00.587Z,0.60
2022-09-22T14:54:30.007Z,0.63
2022-09-22T14:56:58.517Z,0.63
2022-09-22T14:59:43.575Z,0.70
2022-09-22T15:02:32.336Z,0.70
2022-09-22T15:05:03.538Z,1.00
2022-09-22T15:07:31.321Z,1.02
2022-09-22T15:09:59.649Z,0.80
2022-09-22T15:12:46.202Z,0.77
2022-09-22T15:15:29.190Z,0.98
2022-09-22T15:18:16.227Z,0.80
2022-09-22T15:20:58.490Z,0.77
2022-09-22T15:23:26.456Z,0.93
2022-09-22T15:25:54.823Z,1.17
2022-09-22T15:28:23.780Z,1.60
2022-09-22T15:30:53.478Z,1.15
2022-09-22T15:33:20.766Z,1.35
2022-09-22T15:35:48.414Z,1.13
2022-09-22T15:38:19.429Z,1.50
2022-09-22T15:40:46.842Z,1.80
2022-09-22T15:43:14.376Z,1.65
2022-09-22T15:45:47.634Z,1.60
2022-09-22T15:48:17.332Z,1.85
2022-09-22T15:50:44.297Z,1.58
2022-09-22T15:53:10.972Z,1.92
2022-09-22T15:55:37.370Z,2.00
2022-09-22T15:58:08.899Z,1.95
2022-09-22T16:00:36.057Z,1.83
2022-09-22T16:03:02.567Z,1.70
2022-09-22T16:05:31.554Z,1.65
2022-09-22T16:07:58.667Z,1.98
2022-09-22T16:10:25.940Z,1.90
2022-09-22T16:12:52.260Z,1.75
2022-09-22T16:15:18.691Z,1.40
2022-09-22T16:17:45.893Z,1.70
2022-09-22T16:20:14.245Z,1.98
2022-09-22T16:22:41.290Z,1.77
2022-09-22T16:25:09.465Z,1.63
2022-09-22T16:27:36.245Z,1.38
2022-09-22T16:30:02.710Z,1.50
2022-09-22T16:32:29.894Z,1.67
2022-09-22T16:34:56.267Z,1.65
2022-09-22T16:37:22.827Z,1.52
2022-09-22T16:39:49.281Z,1.60
2022-09-22T16:42:21.570Z,1.70
2022-09-22T16:44:49.800Z,1.73
2022-09-22T16:47:22.912Z,1.40
2022-09-22T16:49:51.221Z,1.67
2022-09-22T16:52:18.855Z,1.63
2022-09-22T16:54:45.156Z,1.13
2022-09-22T16:57:11.766Z,2.55
2022-09-22T16:59:38.126Z,2.38
2022-09-22T17:02:04.675Z,2.95
2022-09-22T17:04:32.340Z,2.60
2022-09-22T17:06:58.634Z,3.10
2022-09-22T17:09:25.112Z,2.70
2022-09-22T17:11:52.574Z,2.42
2022-09-22T17:14:21.614Z,2.40
2022-09-22T17:16:49.827Z,1.92
2022-09-22T17:19:18.412Z,1.70
2022-09-22T17:21:45.958Z,1.60
2022-09-22T17:24:12.867Z,1.75
2022-09-22T17:26:47.230Z,1.27
2022-09-22T17:29:15.890Z,1.52
2022-09-22T17:31:42.956Z,1.98
2022-09-22T17:34:10.370Z,1.73
2022-09-22T17:36:37.493Z,1.95
2022-09-22T17:39:04.016Z,1.65
2022-09-22T17:41:32.691Z,2.20
2022-09-22T17:44:03.212Z,1.35
2022-09-22T17:46:31.569Z,0.82
2022-09-22T17:49:16.667Z,1.60
2022-09-22T17:52:02.648Z,1.80
2022-09-22T17:54:51.695Z,1.17
2022-09-22T17:57:20.133Z,1.30
2022-09-22T17:59:47.258Z,1.00
2022-09-22T18:02:15.346Z,0.90
2022-09-22T18:04:42.230Z,1.77
2022-09-22T18:07:09.602Z,1.13
2022-09-22T18:09:37.361Z,1.40
2022-09-22T18:12:05.194Z,2.08
2022-09-22T18:14:31.923Z,1.50
2022-09-22T18:16:58.455Z,1.80
2022-09-22T18:19:36.491Z,1.80
2022-09-22T18:22:06.890Z,2.75
2022-09-22T18:24:37.789Z,1.90
2022-09-22T18:27:05.136Z,2.03
2022-09-22T18:29:35.085Z,2.30
2022-09-22T18:32:02.286Z,1.50
2022-09-22T18:34:31.767Z,2.03
2022-09-22T18:36:59.787Z,1.33
2022-09-22T18:39:26.473Z,2.10
2022-09-22T18:41:56.473Z,1.90
2022-09-22T18:44:22.859Z,1.95
2022-09-22T18:46:49.383Z,1.25
2022-09-22T18:49:16.623Z,2.83
2022-09-22T18:51:54.110Z,2.13
2022-09-22T18:54:22.192Z,2.03
2022-09-22T18:56:49.796Z,1.30
2022-09-22T18:59:17.737Z,0.77
2022-09-22T19:01:44.320Z,2.20
2022-09-22T19:04:18.030Z,1.38
2022-09-22T19:07:03.262Z,2.40
2022-09-22T19:09:29.617Z,2.23
2022-09-22T19:11:56.048Z,1.85
2022-09-22T19:14:24.580Z,1.83
2022-09-22T19:16:51.549Z,2.05
2022-09-22T19:19:19.228Z,1.60
2022-09-22T19:21:46.235Z,1.70
2022-09-22T19:24:13.011Z,1.60
2022-09-22T19:26:42.319Z,1.60
2022-09-22T19:29:09.480Z,1.42
2022-09-22T19:31:37.932Z,1.30
2022-09-22T19:34:04.568Z,1.77
2022-09-22T19:36:33.346Z,1.95
2022-09-22T19:38:59.735Z,3.72
2022-09-22T19:41:26.900Z,2.63
2022-09-22T19:43:53.781Z,1.63
2022-09-22T19:46:20.323Z,2.47
2022-09-22T19:48:47.158Z,1.88
2022-09-22T19:51:13.634Z,2.13
2022-09-22T19:53:40.084Z,1.75
2022-09-22T19:56:06.744Z,1.60
2022-09-22T19:58:33.421Z,2.22
2022-09-22T20:01:00.156Z,2.00
2022-09-22T20:03:26.648Z,1.50
2022-09-22T20:05:53.579Z,2.00
2022-09-22T20:08:21.654Z,2.17
2022-09-22T20:11:01.743Z,2.22
2022-09-22T20:13:55.888Z,2.38
2022-09-22T20:16:22.264Z,1.50
2022-09-22T20:18:48.748Z,1.52
2022-09-22T20:21:16.914Z,2.03
2022-09-22T20:23:43.295Z,1.63
2022-09-22T20:26:09.604Z,1.40
2022-09-22T20:28:36.590Z,2.05
2022-09-22T20:31:03.183Z,2.97
2022-09-22T20:33:29.650Z,2.38
2022-09-22T20:35:57.849Z,1.85
2022-09-22T20:38:24.549Z,2.80
2022-09-22T20:40:50.900Z,3.20
2022-09-22T20:43:17.430Z,3.08
2022-09-22T20:45:44.077Z,1.40
2022-09-22T20:48:15.680Z,2.10
2022-09-22T20:50:42.036Z,1.95
2022-09-22T20:53:08.381Z,1.58
2022-09-22T20:55:34.813Z,1.60
2022-09-22T20:58:04.642Z,2.30
2022-09-22T21:00:31.175Z,2.20
2022-09-22T21:03:00.344Z,1.50
2022-09-22T21:05:26.731Z,2.70
2022-09-22T21:08:13.099Z,2.33
2022-09-22T21:10:39.456Z,2.60
2022-09-22T21:13:05.997Z,1.92
2022-09-22T21:15:32.393Z,2.88
2022-09-22T21:17:58.800Z,3.33
2022-09-22T21:20:27.069Z,2.70
2022-09-22T21:22:53.993Z,3.85
2022-09-22T21:25:20.333Z,3.15
2022-09-22T21:27:47.063Z,3.95
2022-09-22T21:30:13.752Z,3.15
2022-09-22T21:32:40.233Z,1.50
2022-09-22T21:35:06.819Z,2.20
2022-09-22T21:37:33.231Z,3.33
2022-09-22T21:39:59.557Z,2.30
2022-09-22T21:42:27.629Z,1.63
2022-09-22T21:44:53.999Z,3.53
2022-09-22T21:47:20.383Z,2.83
2022-09-22T21:49:46.786Z,3.40
2022-09-22T21:52:13.105Z,1.40
2022-09-22T21:54:39.453Z,3.67
2022-09-22T21:57:05.775Z,3.55
2022-09-22T21:59:32.130Z,1.92
2022-09-22T22:01:58.583Z,3.63
2022-09-22T22:04:25.133Z,2.97
2022-09-22T22:06:52.016Z,2.47
2022-09-22T22:09:19.342Z,3.08
2022-09-22T22:11:48.838Z,2.95
2022-09-22T22:14:16.242Z,2.00
2022-09-22T22:16:43.743Z,2.25
2022-09-22T22:19:11.767Z,2.97
2022-09-22T22:21:40.869Z,2.67
2022-09-22T22:24:26.372Z,2.88
2022-09-22T22:26:54.954Z,2.70
2022-09-22T22:29:21.709Z,2.80
2022-09-22T22:31:49.181Z,3.00
2022-09-22T22:34:16.853Z,2.70
2022-09-22T22:36:43.660Z,2.22
2022-09-22T22:39:10.507Z,2.40
2022-09-22T22:41:37.228Z,2.08
2022-09-22T22:44:03.633Z,2.90
2022-09-22T22:46:30.094Z,2.70
2022-09-22T22:48:57.074Z,2.33
2022-09-22T22:51:23.872Z,3.08
2022-09-22T22:53:50.754Z,1.85
2022-09-22T22:56:18.489Z,1.13
2022-09-22T22:58:45.965Z,3.53
2022-09-22T23:01:17.585Z,2.88
2022-09-22T23:03:45.279Z,1.60
2022-09-22T23:06:12.846Z,2.17
2022-09-22T23:08:39.603Z,2.70
2022-09-22T23:11:08.915Z,2.10
2022-09-22T23:13:35.267Z,2.00
2022-09-22T23:16:09.865Z,1.73
2022-09-22T23:18:38.038Z,2.53
2022-09-22T23:21:08.670Z,2.60
2022-09-22T23:23:35.614Z,3.17
2022-09-22T23:26:02.369Z,3.53
2022-09-22T23:28:30.356Z,1.42
2022-09-22T23:31:02.857Z,2.42
2022-09-22T23:33:30.115Z,2.50
2022-09-22T23:35:57.375Z,2.80
2022-09-22T23:38:26.251Z,2.90
2022-09-22T23:40:54.340Z,2.72
2022-09-22T23:43:21.170Z,2.08
2022-09-22T23:45:47.666Z,1.70
2022-09-22T23:48:14.478Z,1.48
2022-09-22T23:50:46.080Z,2.28
2022-09-22T23:53:12.979Z,2.10
2022-09-22T23:55:39.451Z,2.50
2022-09-22T23:58:06.320Z,2.47
